Time;durP1;ratioP1;P1;durP2;ratioP2;P2;SDS_P1;SDS_P2;PMS_P1;PMS_P2;Temp;Humidity;BMP_temperature;BMP_pressure;BME280_temperature;BME280_humidity;BME280_pressure;Samples;Min_cycle;Max_cycle;Signal;HPM_P1;HPM_P2
2022/09/30 00:01:38;;;;;;;17.02;10.25;;;;;;;16.00;100.00;94159.94;5070785;28;20569;-63
2022/09/30 00:04:05;;;;;;;16.85;10.70;;;;;;;16.10;100.00;94165.63;5071109;28;20201;-60
2022/09/30 00:06:31;;;;;;;14.32;10.40;;;;;;;16.17;100.00;94153.66;5070559;28;20271;-60
2022/09/30 00:08:56;;;;;;;13.65;9.13;;;;;;;16.15;100.00;94174.38;5070970;28;20204;-64
2022/09/30 00:11:26;;;;;;;13.73;9.30;;;;;;;16.24;100.00;94173.31;5070854;28;20192;-65
2022/09/30 00:13:52;;;;;;;14.63;10.02;;;;;;;16.09;100.00;94182.75;5070354;28;20215;-63
2022/09/30 00:16:20;;;;;;;14.82;10.07;;;;;;;16.15;100.00;94184.63;5070628;28;20216;-64
2022/09/30 00:18:45;;;;;;;14.32;8.80;;;;;;;16.33;100.00;94190.22;5070439;28;20647;-60
2022/09/30 00:21:12;;;;;;;10.90;8.65;;;;;;;16.24;100.00;94169.97;5070516;28;20587;-61
2022/09/30 00:23:39;;;;;;;12.43;9.45;;;;;;;16.35;100.00;94159.25;5070843;28;20219;-62
2022/09/30 00:26:15;;;;;;;13.57;9.93;;;;;;;16.43;100.00;94167.66;5070341;28;20181;-63
2022/09/30 00:28:42;;;;;;;15.93;10.00;;;;;;;16.07;100.00;94186.47;5070714;28;20213;-62
2022/09/30 00:31:12;;;;;;;13.02;9.70;;;;;;;15.86;100.00;94192.25;5070663;28;20174;-63
2022/09/30 00:33:38;;;;;;;15.18;9.90;;;;;;;16.08;100.00;94173.47;5073922;28;20216;-62
2022/09/30 00:36:04;;;;;;;17.50;9.80;;;;;;;16.09;100.00;94185.31;5072782;28;20259;-63
2022/09/30 00:38:30;;;;;;;13.90;10.18;;;;;;;15.74;100.00;94179.06;5073644;28;20196;-63
2022/09/30 00:40:55;;;;;;;14.43;10.15;;;;;;;16.06;100.00;94177.19;5055984;28;20192;-63
2022/09/30 00:45:58;;;;;;;14.32;9.57;;;;;;;16.02;100.00;94173.38;5101447;22;20228;-64
2022/09/30 00:48:36;;;;;;;19.27;9.45;;;;;;;16.14;100.00;94175.31;5093687;28;20192;-64
2022/09/30 00:51:05;;;;;;;16.27;10.40;;;;;;;16.20;100.00;94172.06;5094175;28;20195;-63
2022/09/30 00:54:01;;;;;;;12.57;9.57;;;;;;;15.98;100.00;94162.66;5075622;28;20208;-61
2022/09/30 00:56:37;;;;;;;13.73;9.55;;;;;;;15.77;100.00;94149.72;5093890;28;20184;-62
2022/09/30 00:59:32;;;;;;;14.77;8.75;;;;;;;16.02;100.00;94184.41;5101544;22;20243;-60
2022/09/30 01:01:59;;;;;;;11.05;8.38;;;;;;;15.79;100.00;94188.78;5072407;28;20245;-62
2022/09/30 01:04:29;;;;;;;8.60;6.43;;;;;;;15.79;100.00;94150.34;5093604;28;20196;-61
2022/09/30 01:06:58;;;;;;;11.18;8.02;;;;;;;15.73;100.00;94145.91;5093570;28;20180;-63
2022/09/30 01:09:24;;;;;;;12.45;8.05;;;;;;;15.69;100.00;94183.13;5093290;28;20689;-63
2022/09/30 01:11:49;;;;;;;10.77;8.25;;;;;;;15.45;100.00;94166.16;5093650;28;20225;-60
2022/09/30 01:14:22;;;;;;;9.85;8.35;;;;;;;15.47;100.00;94155.75;5093755;28;20218;-61
2022/09/30 01:16:53;;;;;;;16.00;10.52;;;;;;;15.68;100.00;94163.56;5093490;28;20259;-63
2022/09/30 01:19:43;;;;;;;12.40;8.32;;;;;;;15.63;100.00;94164.09;5093819;28;20212;-60
2022/09/30 01:22:27;;;;;;;11.57;8.57;;;;;;;15.77;100.00;94163.34;5093320;28;20200;-62
2022/09/30 01:24:58;;;;;;;8.82;6.57;;;;;;;15.75;100.00;94165.28;5093539;28;20269;-62
2022/09/30 01:27:24;;;;;;;8.95;7.53;;;;;;;15.67;100.00;94164.53;5093299;28;20187;-64
2022/09/30 01:30:05;;;;;;;12.18;7.10;;;;;;;15.62;100.00;94166.81;5093105;28;20299;-61
2022/09/30 01:33:12;;;;;;;8.82;7.07;;;;;;;15.69;100.00;94173.66;5093288;28;20192;-61
2022/09/30 01:36:19;;;;;;;7.47;6.22;;;;;;;15.88;100.00;94173.16;5074753;28;20215;-60
2022/09/30 01:39:08;;;;;;;9.93;6.75;;;;;;;15.88;100.00;94169.81;5082531;28;20278;-61
2022/09/30 01:41:53;;;;;;;8.40;7.03;;;;;;;15.57;100.00;94169.09;5074905;28;20188;-61
2022/09/30 01:44:28;;;;;;;8.07;6.95;;;;;;;15.48;100.00;94165.00;5093051;28;20212;-63
2022/09/30 01:47:00;;;;;;;9.43;6.13;;;;;;;15.80;100.00;94165.53;5093143;28;20232;-60
2022/09/30 01:49:37;;;;;;;9.98;7.35;;;;;;;15.86;100.00;94174.31;5093091;28;20208;-61
2022/09/30 01:52:07;;;;;;;9.13;6.57;;;;;;;15.79;100.00;94174.22;5092781;28;20245;-62
2022/09/30 01:55:05;;;;;;;10.60;7.90;;;;;;;15.59;100.00;94167.97;5074391;28;20610;-63
2022/09/30 01:58:15;;;;;;;10.75;7.70;;;;;;;15.68;100.00;94172.06;5092158;28;20279;-61
2022/09/30 02:00:48;;;;;;;9.80;7.65;;;;;;;15.85;100.00;94180.41;5093105;22;20277;-61
2022/09/30 02:03:21;;;;;;;13.93;9.20;;;;;;;15.62;100.00;94166.81;5092856;28;20747;-61
2022/09/30 02:06:01;;;;;;;10.80;7.93;;;;;;;15.64;100.00;94168.25;5072587;28;20678;-62
2022/09/30 02:09:02;;;;;;;12.43;10.00;;;;;;;15.37;100.00;94163.59;5072642;28;20241;-62
2022/09/30 02:11:31;;;;;;;13.20;8.85;;;;;;;15.31;100.00;94169.41;5072408;28;20188;-62
2022/09/30 02:14:06;;;;;;;13.63;9.73;;;;;;;15.64;100.00;94177.69;5072595;28;20301;-61
2022/09/30 02:16:34;;;;;;;12.60;9.45;;;;;;;15.47;100.00;94177.03;5072232;28;20683;-63
2022/09/30 02:19:38;;;;;;;11.25;9.40;;;;;;;15.48;100.00;94181.19;5087720;22;20242;-63
2022/09/30 02:22:17;;;;;;;11.07;8.52;;;;;;;15.51;100.00;94175.72;5073824;28;20698;-61
2022/09/30 02:24:46;;;;;;;11.60;8.82;;;;;;;15.61;100.00;94185.75;5092450;28;20214;-64
2022/09/30 02:27:22;;;;;;;11.90;8.32;;;;;;;15.49;100.00;94179.41;5092358;28;20191;-62
2022/09/30 02:29:52;;;;;;;10.20;8.93;;;;;;;15.71;100.00;94191.41;5092851;28;20253;-64
2022/09/30 02:32:24;;;;;;;10.40;8.95;;;;;;;15.53;100.00;94188.34;5092235;28;20188;-64
2022/09/30 02:35:04;;;;;;;12.85;7.78;;;;;;;15.61;100.00;94201.09;5092725;28;20739;-65
2022/09/30 02:37:43;;;;;;;10.73;8.65;;;;;;;15.85;100.00;94203.47;5092349;28;20219;-64
2022/09/30 02:40:27;;;;;;;12.95;9.43;;;;;;;15.60;100.00;94189.25;5074393;28;20326;-62
2022/09/30 02:42:54;;;;;;;13.57;9.48;;;;;;;15.50;100.00;94184.38;5092415;28;20717;-61
2022/09/30 02:45:21;;;;;;;11.35;8.40;;;;;;;15.60;100.00;94187.50;5091931;28;20245;-61
2022/09/30 02:47:57;;;;;;;14.35;9.43;;;;;;;15.37;100.00;94168.72;5092040;28;20741;-61
2022/09/30 02:50:34;;;;;;;13.27;9.93;;;;;;;15.70;100.00;94174.44;5091689;28;20243;-60
2022/09/30 02:53:18;;;;;;;10.77;9.23;;;;;;;15.80;100.00;94185.25;5091819;28;20241;-63
2022/09/30 02:55:44;;;;;;;14.52;9.40;;;;;;;15.62;100.00;94177.06;5091182;28;20349;-62
2022/09/30 02:58:20;;;;;;;13.65;9.65;;;;;;;15.37;100.00;94180.75;5092010;28;20183;-60
2022/09/30 03:00:47;;;;;;;11.95;9.38;;;;;;;15.36;100.00;94177.38;5091863;28;20188;-60
2022/09/30 03:03:33;;;;;;;15.07;9.63;;;;;;;15.43;100.00;94182.66;5073781;28;20574;-62
2022/09/30 03:05:59;;;;;;;16.25;10.60;;;;;;;15.40;100.00;94188.06;5091835;28;20196;-62
2022/09/30 03:08:25;;;;;;;12.77;9.30;;;;;;;15.68;100.00;94190.00;5091518;28;20188;-62
2022/09/30 03:10:51;;;;;;;10.80;9.10;;;;;;;15.58;100.00;94196.31;5091855;28;20223;-62
2022/09/30 03:13:44;;;;;;;21.80;11.60;;;;;;;15.17;100.00;94208.53;5091799;28;20243;-64
2022/09/30 03:16:37;;;;;;;16.88;10.85;;;;;;;15.47;100.00;94200.09;5091640;28;20188;-61
2022/09/30 03:19:41;;;;;;;15.57;10.38;;;;;;;15.30;100.00;94195.19;5091849;28;20207;-60
2022/09/30 03:22:18;;;;;;;18.98;10.80;;;;;;;15.34;100.00;94201.56;5091592;28;20196;-61
2022/09/30 03:25:05;;;;;;;37.22;12.57;;;;;;;15.43;100.00;94193.69;5092041;28;20595;-62
2022/09/30 03:27:52;;;;;;;29.05;11.95;;;;;;;15.45;100.00;94206.34;5091609;28;20245;-64
2022/09/30 03:30:25;;;;;;;16.08;12.20;;;;;;;15.42;100.00;94209.19;5091467;28;20200;-64
2022/09/30 03:32:57;;;;;;;35.45;11.98;;;;;;;15.65;100.00;94207.50;5091282;28;20199;-62
2022/09/30 03:35:34;;;;;;;22.30;11.43;;;;;;;15.42;100.00;94198.94;5072992;28;20311;-62
2022/09/30 03:38:00;;;;;;;15.93;11.52;;;;;;;15.31;100.00;94199.34;5091200;28;20198;-61
2022/09/30 03:40:44;;;;;;;27.23;12.38;;;;;;;15.55;100.00;94206.91;5091094;28;20294;-61
2022/09/30 03:43:44;;;;;;;60.35;13.60;;;;;;;15.27;100.00;94205.78;5089808;28;20192;-64
2022/09/30 03:46:29;;;;;;;18.88;12.20;;;;;;;15.25;100.00;94212.84;5022377;28;20208;-61
2022/09/30 03:49:00;;;;;;;31.52;12.48;;;;;;;15.53;100.00;94208.84;5091482;28;20199;-64
2022/09/30 03:51:28;;;;;;;16.45;12.02;;;;;;;15.36;100.00;94204.75;5091196;28;20669;-61
2022/09/30 03:53:54;;;;;;;43.33;12.80;;;;;;;15.60;100.00;94220.81;5091026;28;20211;-62
2022/09/30 03:56:28;;;;;;;17.50;12.88;;;;;;;15.37;100.00;94226.84;5091107;28;20188;-61
2022/09/30 03:58:55;;;;;;;25.35;14.07;;;;;;;15.36;100.00;94222.69;5072808;28;20228;-61
2022/09/30 04:01:22;;;;;;;16.92;12.20;;;;;;;15.31;100.00;94219.84;5090997;28;20249;-61
2022/09/30 04:03:51;;;;;;;21.70;12.77;;;;;;;15.25;100.00;94231.53;5090890;28;20196;-63
2022/09/30 04:06:19;;;;;;;57.00;13.35;;;;;;;15.31;100.00;94223.19;5094864;28;20176;-65
2022/09/30 04:08:44;;;;;;;38.10;13.80;;;;;;;15.13;100.00;94218.31;5097788;28;20215;-63
2022/09/30 04:11:11;;;;;;;54.30;14.00;;;;;;;15.11;100.00;94237.38;5097568;28;20271;-59
2022/09/30 04:13:37;;;;;;;49.47;13.35;;;;;;;15.20;100.00;94233.03;5105233;22;20608;-60
2022/09/30 04:16:04;;;;;;;17.15;11.43;;;;;;;15.47;100.00;94233.41;5097119;28;20195;-61
2022/09/30 04:18:30;;;;;;;27.90;12.55;;;;;;;15.37;100.00;94221.72;5097070;28;20191;-61
2022/09/30 04:20:57;;;;;;;17.95;12.70;;;;;;;15.56;100.00;94234.94;5097564;28;20195;-62
2022/09/30 04:23:23;;;;;;;96.93;16.10;;;;;;;15.42;100.00;94227.13;5097455;28;20188;-64
2022/09/30 04:25:55;;;;;;;25.85;14.32;;;;;;;15.32;100.00;94224.78;5097465;28;20188;-62
2022/09/30 04:28:22;;;;;;;19.95;11.82;;;;;;;15.43;100.00;94228.78;5097538;28;20209;-63
2022/09/30 04:30:47;;;;;;;18.98;12.25;;;;;;;15.71;100.00;94222.97;5079073;28;20574;-63
2022/09/30 04:33:13;;;;;;;29.88;12.43;;;;;;;15.73;100.00;94225.38;5079180;28;20207;-62
2022/09/30 04:35:38;;;;;;;17.33;12.77;;;;;;;15.56;100.00;94237.47;5097278;28;20207;-64
2022/09/30 04:38:06;;;;;;;17.95;12.70;;;;;;;15.56;100.00;94240.03;5097192;28;20615;-62
2022/09/30 04:40:35;;;;;;;17.55;12.27;;;;;;;15.73;100.00;94246.69;5097135;28;20282;-61
2022/09/30 04:43:00;;;;;;;29.58;12.48;;;;;;;15.87;100.00;94243.38;5096992;28;20237;-61
2022/09/30 04:45:26;;;;;;;15.35;12.32;;;;;;;15.69;100.00;94240.28;5097025;28;20609;-62
2022/09/30 04:47:51;;;;;;;20.80;14.38;;;;;;;15.57;100.00;94245.97;5097189;28;20565;-62
2022/09/30 04:50:18;;;;;;;16.83;12.60;;;;;;;15.54;100.00;94246.31;5078709;28;20234;-63
2022/09/30 04:52:43;;;;;;;24.58;13.38;;;;;;;15.58;100.00;94268.06;5079109;28;20188;-63
2022/09/30 04:55:10;;;;;;;18.50;13.48;;;;;;;15.85;100.00;94263.25;5097192;28;20689;-63
2022/09/30 04:57:36;;;;;;;40.45;13.68;;;;;;;15.75;100.00;94269.56;5097025;28;20703;-63
2022/09/30 05:00:04;;;;;;;31.60;14.30;;;;;;;15.77;100.00;94281.25;5078675;28;20220;-63
2022/09/30 05:02:31;;;;;;;33.72;14.45;;;;;;;15.63;100.00;94291.41;5096954;28;20192;-62
2022/09/30 05:04:56;;;;;;;31.92;13.00;;;;;;;15.57;100.00;94292.91;5096832;28;20281;-61
2022/09/30 05:07:22;;;;;;;22.15;14.30;;;;;;;15.54;100.00;94293.22;5097093;28;20188;-63
2022/09/30 05:09:47;;;;;;;17.58;12.93;;;;;;;15.66;100.00;94276.50;5096741;28;20653;-63
2022/09/30 05:12:14;;;;;;;19.63;13.30;;;;;;;15.72;100.00;94269.88;5096847;28;20240;-62
2022/09/30 05:14:40;;;;;;;17.90;13.23;;;;;;;15.75;100.00;94272.94;5096973;28;20208;-61
2022/09/30 05:17:05;;;;;;;26.98;15.50;;;;;;;15.79;100.00;94279.31;5094741;28;20578;-64
2022/09/30 05:19:31;;;;;;;30.98;16.77;;;;;;;15.73;100.00;94269.75;5075432;28;20311;-63
2022/09/30 05:21:56;;;;;;;22.23;15.05;;;;;;;15.87;100.00;94281.81;5075362;28;20713;-60
2022/09/30 05:24:21;;;;;;;21.40;15.40;;;;;;;15.75;100.00;94290.88;5093448;28;20288;-62
2022/09/30 05:26:47;;;;;;;22.40;16.35;;;;;;;15.53;100.00;94296.78;5093332;28;20180;-61
2022/09/30 05:29:12;;;;;;;35.40;16.45;;;;;;;15.68;100.00;94304.50;5093166;28;20595;-60
2022/09/30 05:31:38;;;;;;;25.90;17.80;;;;;;;15.65;100.00;94300.53;5093288;28;20180;-61
2022/09/30 05:34:03;;;;;;;27.23;16.08;;;;;;;15.57;100.00;94298.03;5093182;28;20317;-61
2022/09/30 05:36:29;;;;;;;37.55;16.15;;;;;;;15.58;100.00;94298.81;5093158;28;20180;-61
2022/09/30 05:38:54;;;;;;;20.27;14.85;;;;;;;15.75;100.00;94301.13;5093251;28;20261;-63
2022/09/30 05:41:20;;;;;;;27.90;14.85;;;;;;;15.96;100.00;94313.31;5093184;28;20562;-60
2022/09/30 05:43:47;;;;;;;26.25;17.13;;;;;;;15.78;100.00;94305.91;5093100;28;20216;-62
2022/09/30 05:46:17;;;;;;;29.70;18.80;;;;;;;15.68;100.00;94314.75;5092973;28;20176;-63
2022/09/30 05:48:42;;;;;;;31.55;19.70;;;;;;;15.77;100.00;94309.44;5074635;28;20239;-62
2022/09/30 05:51:08;;;;;;;33.85;21.63;;;;;;;15.56;100.00;94321.22;5092869;28;20176;-62
2022/09/30 05:53:37;;;;;;;30.40;20.88;;;;;;;15.69;100.00;94326.63;5092564;28;20298;-62
2022/09/30 05:56:06;;;;;;;31.50;21.23;;;;;;;15.64;100.00;94328.88;5092867;28;20657;-63
2022/09/30 05:58:32;;;;;;;36.33;22.33;;;;;;;15.85;100.00;94329.09;5092865;28;20188;-61
2022/09/30 06:01:05;;;;;;;34.78;21.65;;;;;;;16.05;100.00;94334.56;5092790;28;20195;-63
2022/09/30 06:03:30;;;;;;;33.00;20.85;;;;;;;15.99;100.00;94336.06;5092792;28;20196;-63
2022/09/30 06:05:56;;;;;;;38.17;24.58;;;;;;;15.90;100.00;94335.31;5092813;28;20187;-61
2022/09/30 06:08:22;;;;;;;51.03;24.23;;;;;;;15.98;100.00;94346.50;5100467;22;20235;-61
2022/09/30 06:10:48;;;;;;;38.28;24.00;;;;;;;15.91;100.00;94343.78;5092751;28;20192;-60
2022/09/30 06:13:16;;;;;;;38.80;24.67;;;;;;;15.83;100.00;94333.59;5092591;28;20711;-61
2022/09/30 06:15:42;;;;;;;43.70;26.05;;;;;;;15.54;100.00;94334.22;5092531;28;20200;-61
2022/09/30 06:18:08;;;;;;;41.88;26.23;;;;;;;15.49;100.00;94340.81;5092418;28;20195;-62
2022/09/30 06:20:35;;;;;;;40.00;23.90;;;;;;;15.89;100.00;94343.16;5091155;28;20211;-65
2022/09/30 06:23:01;;;;;;;39.85;25.35;;;;;;;15.80;100.00;94339.84;5092635;28;20202;-64
2022/09/30 06:25:29;;;;;;;45.58;25.35;;;;;;;15.77;100.00;94342.75;5092327;28;20287;-64
2022/09/30 06:27:55;;;;;;;45.55;25.60;;;;;;;15.96;100.00;94352.56;5092501;28;20183;-63
2022/09/30 06:30:21;;;;;;;35.05;23.13;;;;;;;16.09;100.00;94343.50;5090749;28;20234;-63
2022/09/30 06:32:46;;;;;;;35.33;21.02;;;;;;;16.04;100.00;94349.16;5092338;28;20180;-64
2022/09/30 06:35:12;;;;;;;37.88;22.80;;;;;;;15.80;100.00;94354.41;5073886;28;20211;-61
2022/09/30 06:37:37;;;;;;;33.28;23.27;;;;;;;15.72;100.00;94351.91;5092131;28;20188;-64
2022/09/30 06:40:05;;;;;;;35.55;22.73;;;;;;;15.94;100.00;94349.38;5092058;28;20632;-66
2022/09/30 06:42:30;;;;;;;35.40;23.13;;;;;;;16.04;100.00;94346.59;5092337;28;20195;-63
2022/09/30 06:44:56;;;;;;;36.50;22.95;;;;;;;16.01;100.00;94352.06;5091950;28;20693;-64
2022/09/30 06:47:21;;;;;;;39.60;23.23;;;;;;;16.05;100.00;94355.06;5092293;28;20188;-64
2022/09/30 06:49:47;;;;;;;36.40;23.17;;;;;;;16.22;100.00;94377.88;5092045;28;20243;-64
2022/09/30 06:52:12;;;;;;;49.10;29.60;;;;;;;16.23;100.00;94376.91;5092424;28;20300;-60
2022/09/30 06:54:38;;;;;;;34.13;23.85;;;;;;;16.07;100.00;94371.09;5091840;28;20258;-64
2022/09/30 06:57:04;;;;;;;38.33;22.33;;;;;;;16.33;100.00;94387.75;5091856;28;20184;-64
2022/09/30 06:59:29;;;;;;;37.03;23.38;;;;;;;16.48;100.00;94390.38;5092108;28;20239;-61
2022/09/30 07:01:55;;;;;;;38.75;24.27;;;;;;;16.40;100.00;94388.66;5091989;28;20184;-66
2022/09/30 07:04:20;;;;;;;39.72;23.23;;;;;;;16.33;100.00;94398.03;5092186;28;20678;-63
2022/09/30 07:06:46;;;;;;;37.78;23.65;;;;;;;16.39;100.00;94394.78;5090493;28;20685;-62
2022/09/30 07:09:12;;;;;;;40.15;25.15;;;;;;;16.42;100.00;94398.75;5073697;28;20216;-61
2022/09/30 07:11:40;;;;;;;41.28;26.55;;;;;;;16.47;100.00;94402.41;5091779;28;20183;-62
2022/09/30 07:14:08;;;;;;;41.05;26.42;;;;;;;16.59;100.00;94410.53;5091719;28;20329;-61
2022/09/30 07:16:34;;;;;;;38.30;24.63;;;;;;;16.64;100.00;94408.25;5091636;28;20218;-63
2022/09/30 07:19:00;;;;;;;43.03;24.10;;;;;;;16.62;100.00;94421.25;5091667;28;20208;-63
2022/09/30 07:21:26;;;;;;;43.17;25.85;;;;;;;16.56;100.00;94423.72;5091379;28;20212;-62
2022/09/30 07:23:52;;;;;;;40.17;24.10;;;;;;;16.57;100.00;94428.66;5091302;28;20201;-61
2022/09/30 07:26:22;;;;;;;34.85;22.77;;;;;;;16.63;100.00;94420.28;5091369;28;20676;-61
2022/09/30 07:28:49;;;;;;;36.17;23.83;;;;;;;16.95;100.00;94421.00;5091780;28;20208;-62
2022/09/30 07:31:17;;;;;;;45.28;25.40;;;;;;;16.91;100.00;94430.03;5090834;28;20192;-62
2022/09/30 07:33:44;;;;;;;32.00;21.42;;;;;;;16.71;100.00;94440.75;5091312;28;20220;-62
2022/09/30 07:36:11;;;;;;;35.70;23.00;;;;;;;17.00;100.00;94462.34;5091358;28;20172;-64
2022/09/30 07:38:40;;;;;;;32.90;21.80;;;;;;;17.08;100.00;94457.16;5091099;28;20195;-62
2022/09/30 07:41:15;;;;;;;32.40;22.25;;;;;;;17.00;100.00;94442.63;5090707;28;20190;-61
2022/09/30 07:43:45;;;;;;;28.58;21.00;;;;;;;16.82;100.00;94439.56;5091341;28;20208;-61
2022/09/30 07:46:23;;;;;;;28.00;19.10;;;;;;;16.86;100.00;94437.44;5091087;28;20199;-63
2022/09/30 07:48:50;;;;;;;27.15;19.23;;;;;;;16.94;100.00;94427.91;5091533;28;20298;-63
2022/09/30 07:51:20;;;;;;;29.88;19.42;;;;;;;17.01;100.00;94418.50;5091038;28;20202;-62
2022/09/30 07:53:48;;;;;;;26.05;17.85;;;;;;;17.33;100.00;94446.47;5091261;28;20212;-63
2022/09/30 07:56:14;;;;;;;29.67;17.73;;;;;;;17.39;100.00;94468.13;5090974;28;20228;-63
2022/09/30 07:58:40;;;;;;;27.33;18.48;;;;;;;17.32;100.00;94431.22;5090895;28;20231;-63
2022/09/30 08:01:06;;;;;;;35.40;20.88;;;;;;;17.38;100.00;94425.38;5090994;28;20643;-62
2022/09/30 08:03:34;;;;;;;32.35;20.38;;;;;;;17.63;100.00;94431.09;5090973;28;20192;-62
2022/09/30 08:06:11;;;;;;;28.33;20.23;;;;;;;17.87;100.00;94447.06;5090723;28;20194;-62
2022/09/30 08:08:36;;;;;;;26.20;17.50;;;;;;;17.91;100.00;94468.06;5090853;28;20191;-62
2022/09/30 08:11:03;;;;;;;22.02;15.15;;;;;;;17.98;100.00;94469.72;5090817;28;20192;-61
2022/09/30 08:13:28;;;;;;;19.55;13.93;;;;;;;18.26;100.00;94496.41;5090856;28;20203;-61
2022/09/30 08:15:54;;;;;;;27.50;15.57;;;;;;;18.38;100.00;94489.81;5090807;28;20328;-62
2022/09/30 08:18:19;;;;;;;17.05;11.43;;;;;;;18.67;100.00;94512.13;5090973;28;20700;-63
2022/09/30 08:20:45;;;;;;;15.63;10.80;;;;;;;18.74;100.00;94507.06;5090626;28;20680;-63
2022/09/30 08:23:11;;;;;;;15.05;10.90;;;;;;;18.86;100.00;94495.28;5090909;28;20681;-62
2022/09/30 08:25:37;;;;;;;14.77;10.57;;;;;;;19.13;100.00;94523.69;5090374;28;20200;-63
2022/09/30 08:28:02;;;;;;;16.23;10.32;;;;;;;19.27;100.00;94524.59;5072344;28;20196;-63
2022/09/30 08:30:27;;;;;;;11.68;9.18;;;;;;;19.51;100.00;94520.88;5090566;28;20210;-63
2022/09/30 08:32:53;;;;;;;11.90;10.55;;;;;;;19.66;100.00;94530.09;5090677;28;20231;-64
2022/09/30 08:35:18;;;;;;;15.98;10.25;;;;;;;19.91;100.00;94536.44;5090399;28;20269;-62
2022/09/30 08:37:44;;;;;;;16.88;9.32;;;;;;;20.18;100.00;94577.88;5090656;28;20635;-63
2022/09/30 08:40:23;;;;;;;14.70;9.48;;;;;;;20.40;100.00;94600.06;5072275;28;20670;-63
2022/09/30 08:43:07;;;;;;;13.23;8.82;;;;;;;20.34;100.00;94578.38;5090518;28;20211;-62
2022/09/30 08:45:56;;;;;;;12.07;7.75;;;;;;;20.36;100.00;94629.84;5090437;28;20208;-62
2022/09/30 08:48:34;;;;;;;9.88;8.43;;;;;;;20.61;100.00;94638.72;5072000;28;20650;-62
2022/09/30 08:51:19;;;;;;;12.48;8.27;;;;;;;20.96;100.00;94617.03;5090392;28;20183;-63
2022/09/30 08:53:46;;;;;;;11.90;7.90;;;;;;;21.33;100.00;94623.53;5092837;28;20235;-63
2022/09/30 08:56:22;;;;;;;14.10;7.60;;;;;;;21.37;100.00;94648.00;5093732;28;20642;-63
2022/09/30 08:58:52;;;;;;;10.10;6.93;;;;;;;21.33;100.00;94686.38;5094041;28;20268;-63
2022/09/30 09:01:29;;;;;;;10.30;6.60;;;;;;;21.34;100.00;94669.06;5093727;28;20169;-63
2022/09/30 09:03:57;;;;;;;11.10;6.68;;;;;;;21.55;100.00;94637.88;5093847;28;20218;-61
2022/09/30 09:06:47;;;;;;;12.05;7.45;;;;;;;21.78;100.00;94664.19;5093753;28;20650;-62
2022/09/30 09:09:34;;;;;;;10.85;7.90;;;;;;;22.33;100.00;94661.22;5093851;28;20220;-63
2022/09/30 09:12:03;;;;;;;11.15;7.78;;;;;;;22.72;100.00;94672.53;5093693;28;20197;-63
2022/09/30 09:14:40;;;;;;;14.13;7.22;;;;;;;22.81;100.00;94717.97;5093462;28;20661;-62
2022/09/30 09:17:18;;;;;;;9.43;7.30;;;;;;;22.78;100.00;94733.94;5093583;28;20177;-63
2022/09/30 09:20:12;;;;;;;11.75;7.90;;;;;;;23.02;100.00;94718.53;5093633;28;20599;-64
2022/09/30 09:22:37;;;;;;;9.65;6.40;;;;;;;23.60;100.00;94739.28;5092898;28;20669;-64
2022/09/30 09:25:03;;;;;;;10.80;6.55;;;;;;;23.74;100.00;94769.38;5093362;28;20211;-63
2022/09/30 09:27:44;;;;;;;9.43;6.50;;;;;;;23.99;100.00;94791.03;5075217;28;20196;-63
2022/09/30 09:30:12;;;;;;;11.15;6.13;;;;;;;24.20;100.00;94816.69;5093486;28;20203;-62
2022/09/30 09:32:38;;;;;;;7.25;5.68;;;;;;;24.37;100.00;94838.59;5075135;28;20192;-62
2022/09/30 09:35:23;;;;;;;6.13;4.78;;;;;;;24.56;100.00;94845.50;5093150;28;20212;-62
2022/09/30 09:41:18;;;;;;;10.05;6.53;;;;;;;25.10;100.00;94808.44;5093259;28;20730;-62
2022/09/30 09:43:59;;;;;;;10.30;6.38;;;;;;;25.29;100.00;94804.06;5075215;28;20720;-62
2022/09/30 09:46:30;;;;;;;9.98;7.43;;;;;;;25.63;100.00;94812.09;5093179;28;20164;-63
2022/09/30 09:49:43;;;;;;;7.88;6.88;;;;;;;25.67;81.14;94885.41;5094490;28;20682;-62
2022/09/30 09:52:12;;;;;;;13.35;6.95;;;;;;;25.94;76.64;94897.13;5093371;28;20176;-62
2022/09/30 09:54:47;;;;;;;7.43;6.00;;;;;;;25.82;73.49;94924.91;5092883;28;20216;-63
2022/09/30 09:57:15;;;;;;;14.18;6.72;;;;;;;26.00;72.99;94924.91;5074614;28;20187;-62
2022/09/30 09:59:55;;;;;;;10.90;6.90;;;;;;;26.07;72.11;94910.03;5074596;28;20307;-61
2022/09/30 10:02:26;;;;;;;13.65;8.32;;;;;;;26.36;71.99;94906.66;5092871;28;20210;-62
2022/09/30 10:05:02;;;;;;;10.18;7.07;;;;;;;26.55;72.66;94879.53;5092345;28;20697;-62
2022/09/30 10:07:38;;;;;;;10.30;6.78;;;;;;;26.82;72.05;94887.78;5076378;28;20184;-62
2022/09/30 10:10:11;;;;;;;8.82;6.65;;;;;;;27.05;69.26;94949.69;5092640;28;20272;-62
2022/09/30 10:12:37;;;;;;;9.43;5.82;;;;;;;27.16;68.10;94936.66;5092878;28;20276;-63
2022/09/30 10:15:14;;;;;;;9.48;5.28;;;;;;;27.41;67.67;94936.50;5092545;28;20283;-62
2022/09/30 10:17:40;;;;;;;8.80;5.43;;;;;;;27.68;66.24;94965.56;5074331;28;20183;-62
2022/09/30 10:20:15;;;;;;;7.88;5.85;;;;;;;27.85;66.05;94948.97;5092572;28;20285;-63
2022/09/30 10:22:42;;;;;;;6.93;5.35;;;;;;;28.06;65.87;94937.94;5092657;28;20618;-62
2022/09/30 10:25:13;;;;;;;9.77;5.50;;;;;;;28.17;60.70;95067.91;5092433;28;20199;-62
2022/09/30 10:27:57;;;;;;;9.45;4.97;;;;;;;28.34;60.17;95035.81;5092541;28;20242;-62
2022/09/30 10:30:34;;;;;;;7.85;4.10;;;;;;;28.62;58.53;95059.47;5092524;28;20235;-64
2022/09/30 10:33:03;;;;;;;9.05;5.07;;;;;;;28.80;58.90;95035.72;5092687;28;20691;-62
2022/09/30 10:35:29;;;;;;;8.40;5.63;;;;;;;28.35;59.66;94979.84;5092206;28;20705;-64
2022/09/30 10:37:58;;;;;;;7.45;5.50;;;;;;;28.18;57.09;95069.47;5092374;28;20275;-65
2022/09/30 10:40:28;;;;;;;9.77;5.57;;;;;;;27.95;57.42;95026.81;5092369;28;20840;-63
2022/09/30 10:42:54;;;;;;;7.18;5.90;;;;;;;27.67;57.90;95006.59;5092275;28;20195;-63
2022/09/30 10:45:24;;;;;;;11.30;5.57;;;;;;;27.77;58.44;94998.19;5092075;28;20264;-64
2022/09/30 10:47:54;;;;;;;7.65;4.82;;;;;;;27.75;58.85;94980.13;5092314;28;20215;-64
2022/09/30 10:50:23;;;;;;;5.43;4.55;;;;;;;27.92;57.52;95011.59;5091962;28;20196;-64
2022/09/30 10:53:10;;;;;;;7.90;5.07;;;;;;;27.75;57.72;94998.41;5092354;28;20207;-62
2022/09/30 10:55:45;;;;;;;4.80;3.95;;;;;;;28.23;56.73;95040.03;5092032;28;20291;-63
2022/09/30 10:58:34;;;;;;;7.40;4.32;;;;;;;28.52;55.33;95069.69;5073735;28;20219;-63
2022/09/30 11:01:16;;;;;;;8.07;5.00;;;;;;;28.77;53.31;95135.66;5073771;28;20215;-63
2022/09/30 11:04:01;;;;;;;6.50;3.60;;;;;;;28.87;53.77;95086.13;5092026;28;20204;-63
2022/09/30 11:06:30;;;;;;;5.82;3.40;;;;;;;28.61;54.07;95078.78;5091842;28;20649;-63
2022/09/30 11:09:03;;;;;;;4.82;3.45;;;;;;;27.89;54.70;95057.28;5091592;28;20200;-62
2022/09/30 11:11:42;;;;;;;7.32;3.20;;;;;;;28.44;53.27;95098.81;5091945;28;20191;-63
2022/09/30 11:14:08;;;;;;;5.13;3.50;;;;;;;28.69;51.93;95123.72;5091680;28;20216;-63
2022/09/30 11:16:56;;;;;;;7.95;3.75;;;;;;;28.98;53.83;95065.16;5090704;28;20192;-62
2022/09/30 11:19:40;;;;;;;9.48;3.92;;;;;;;29.19;53.04;95074.19;5091911;28;20662;-61
2022/09/30 11:22:31;;;;;;;7.13;4.03;;;;;;;28.98;55.00;95012.78;5091574;28;20184;-62
2022/09/30 11:24:57;;;;;;;3.72;2.90;;;;;;;28.81;51.88;95050.41;5091659;28;20219;-62
2022/09/30 11:27:54;;;;;;;8.00;3.20;;;;;;;28.87;50.72;95067.78;5091408;28;20308;-62
2022/09/30 11:30:27;;;;;;;13.85;4.55;;;;;;;28.48;50.22;95090.28;5091264;28;20208;-64
2022/09/30 11:33:14;;;;;;;2.97;2.67;;;;;;;28.70;49.20;95093.13;5091723;28;20555;-64
2022/09/30 11:36:11;;;;;;;7.07;2.83;;;;;;;29.01;50.59;95037.69;5091369;28;20204;-63
2022/09/30 11:39:24;;;;;;;4.18;2.55;;;;;;;29.04;46.76;95153.28;5091263;28;20271;-62
2022/09/30 11:42:02;;;;;;;6.82;2.90;;;;;;;28.44;46.42;95140.69;5046507;28;20253;-63
2022/09/30 11:44:36;;;;;;;4.30;2.30;;;;;;;28.60;47.00;95092.91;5073107;28;20232;-62
2022/09/30 11:47:07;;;;;;;4.95;2.33;;;;;;;28.97;47.05;95094.97;5091220;28;20180;-62